createdAt,value
2022-08-26T00:01:56.334Z,17.60
2022-08-26T00:04:26.089Z,17.60
2022-08-26T00:06:56.845Z,17.50
2022-08-26T00:09:25.441Z,17.40
2022-08-26T00:11:54.123Z,17.40
2022-08-26T00:14:24.173Z,17.40
2022-08-26T00:16:56.620Z,17.40
2022-08-26T00:19:23.816Z,17.40
2022-08-26T00:21:51.369Z,17.40
2022-08-26T00:24:21.020Z,17.40
2022-08-26T00:26:49.425Z,17.30
2022-08-26T00:29:17.257Z,17.40
2022-08-26T00:31:45.311Z,17.30
2022-08-26T00:34:13.899Z,17.30
2022-08-26T00:36:41.107Z,17.30
2022-08-26T00:39:08.614Z,17.30
2022-08-26T00:41:39.983Z,17.20
2022-08-26T00:44:08.305Z,17.20
2022-08-26T00:46:46.674Z,17.20
2022-08-26T00:49:32.457Z,17.20
2022-08-26T00:52:03.641Z,17.20
2022-08-26T00:54:40.443Z,17.10
2022-08-26T00:57:16.375Z,17.10
2022-08-26T00:59:47.673Z,17.00
2022-08-26T01:02:19.952Z,17.00
2022-08-26T01:04:55.769Z,17.00
2022-08-26T01:07:30.217Z,17.00
2022-08-26T01:10:03.809Z,17.00
2022-08-26T01:12:38.861Z,16.90
2022-08-26T01:15:13.799Z,16.80
2022-08-26T01:17:43.855Z,16.80
2022-08-26T01:20:36.605Z,16.70
2022-08-26T01:23:07.303Z,16.70
2022-08-26T01:25:39.633Z,16.60
2022-08-26T01:28:18.840Z,16.60
2022-08-26T01:30:48.524Z,16.50
2022-08-26T01:33:19.539Z,16.50
2022-08-26T01:35:47.452Z,16.40
2022-08-26T01:38:17.317Z,16.40
2022-08-26T01:40:46.084Z,16.30
2022-08-26T01:43:20.013Z,16.30
2022-08-26T01:45:49.696Z,16.20
2022-08-26T01:48:23.469Z,16.20
2022-08-26T01:50:51.838Z,16.20
2022-08-26T01:53:21.452Z,16.20
2022-08-26T01:55:53.794Z,16.20
2022-08-26T01:58:30.797Z,16.20
2022-08-26T02:00:58.505Z,16.20
2022-08-26T02:03:27.169Z,16.30
2022-08-26T02:06:00.821Z,16.20
2022-08-26T02:08:52.233Z,16.20
2022-08-26T02:11:19.498Z,16.20
2022-08-26T02:13:54.421Z,16.20
2022-08-26T02:16:24.888Z,16.20
2022-08-26T02:18:53.475Z,16.20
2022-08-26T02:21:20.840Z,16.20
2022-08-26T02:23:48.058Z,16.20
2022-08-26T02:26:19.257Z,16.20
2022-08-26T02:29:13.398Z,16.20
2022-08-26T02:31:42.549Z,16.20
2022-08-26T02:34:13.875Z,16.30
2022-08-26T02:36:42.915Z,16.30
2022-08-26T02:39:10.240Z,16.30
2022-08-26T02:41:40.310Z,16.20
2022-08-26T02:44:12.510Z,16.20
2022-08-26T02:46:39.851Z,16.20
2022-08-26T02:49:07.210Z,16.20
2022-08-26T02:51:34.525Z,16.20
2022-08-26T02:54:01.790Z,16.10
2022-08-26T02:56:29.586Z,16.10
2022-08-26T02:58:57.052Z,16.00
2022-08-26T03:01:33.069Z,16.00
2022-08-26T03:04:02.076Z,16.00
2022-08-26T03:06:29.617Z,16.00
2022-08-26T03:08:56.842Z,16.10
2022-08-26T03:11:27.621Z,16.00
2022-08-26T03:13:59.219Z,16.00
2022-08-26T03:16:32.532Z,16.00
2022-08-26T03:19:01.110Z,16.10
2022-08-26T03:21:28.428Z,16.00
2022-08-26T03:23:58.636Z,16.00
2022-08-26T03:26:27.069Z,15.90
2022-08-26T03:29:14.399Z,15.90
2022-08-26T03:31:42.104Z,15.90
2022-08-26T03:34:09.781Z,15.80
2022-08-26T03:36:39.024Z,15.80
2022-08-26T03:39:10.401Z,15.80
2022-08-26T03:41:38.187Z,15.80
2022-08-26T03:44:09.017Z,15.80
2022-08-26T03:46:36.598Z,15.80
2022-08-26T03:49:06.085Z,15.80
2022-08-26T03:51:34.865Z,15.80
2022-08-26T03:54:06.669Z,15.90
2022-08-26T03:56:36.747Z,15.90
2022-08-26T03:59:05.077Z,16.10
2022-08-26T04:01:34.670Z,16.30
2022-08-26T04:04:01.910Z,16.60
2022-08-26T04:06:38.084Z,16.90
2022-08-26T04:09:11.849Z,17.10
2022-08-26T04:11:39.732Z,17.50
2022-08-26T04:14:10.690Z,17.80
2022-08-26T04:16:37.665Z,18.20
2022-08-26T04:19:06.698Z,18.60
2022-08-26T04:21:34.770Z,19.00
2022-08-26T04:24:03.513Z,19.40
2022-08-26T04:26:39.530Z,19.90
2022-08-26T04:29:13.824Z,20.30
2022-08-26T04:31:41.435Z,20.70
2022-08-26T04:34:08.992Z,20.90
2022-08-26T04:36:38.274Z,20.80
2022-08-26T04:39:06.009Z,20.90
2022-08-26T04:41:34.073Z,21.10
2022-08-26T04:44:02.515Z,21.30
2022-08-26T04:46:30.029Z,21.60
2022-08-26T04:48:57.118Z,22.10
2022-08-26T04:51:28.199Z,22.40
2022-08-26T04:53:57.499Z,22.70
2022-08-26T04:56:26.632Z,22.80
2022-08-26T04:58:53.970Z,23.00
2022-08-26T05:01:22.321Z,23.00
2022-08-26T05:03:51.550Z,23.20
2022-08-26T05:06:20.075Z,23.30
2022-08-26T05:08:47.618Z,23.40
2022-08-26T05:11:15.152Z,23.70
2022-08-26T05:13:42.518Z,23.70
2022-08-26T05:16:11.959Z,23.40
2022-08-26T05:18:40.907Z,23.10
2022-08-26T05:21:21.622Z,22.70
2022-08-26T05:23:51.415Z,22.20
2022-08-26T05:26:23.073Z,21.80
2022-08-26T05:28:50.962Z,21.60
2022-08-26T05:31:25.698Z,21.30
2022-08-26T05:33:52.905Z,21.20
2022-08-26T05:36:21.961Z,21.50
2022-08-26T05:38:49.919Z,21.90
2022-08-26T05:41:19.988Z,22.30
2022-08-26T05:43:47.435Z,22.20
2022-08-26T05:46:15.932Z,22.50
2022-08-26T05:48:44.227Z,23.00
2022-08-26T05:51:13.041Z,23.60
2022-08-26T05:53:43.750Z,23.90
2022-08-26T05:56:25.194Z,24.10
2022-08-26T05:58:52.602Z,24.10
2022-08-26T06:01:22.090Z,24.00
2022-08-26T06:03:52.852Z,23.90
2022-08-26T06:06:27.886Z,24.00
2022-08-26T06:08:59.400Z,23.90
2022-08-26T06:11:28.614Z,23.80
2022-08-26T06:14:02.705Z,23.80
2022-08-26T06:16:35.314Z,23.90
2022-08-26T06:19:10.538Z,24.20
2022-08-26T06:21:40.858Z,24.30
2022-08-26T06:24:30.158Z,24.30
2022-08-26T06:27:01.283Z,24.40
2022-08-26T06:29:31.506Z,24.50
2022-08-26T06:31:58.794Z,24.60
2022-08-26T06:34:29.890Z,24.70
2022-08-26T06:36:59.880Z,25.00
2022-08-26T06:39:28.421Z,25.10
2022-08-26T06:41:59.120Z,25.30
2022-08-26T06:44:26.952Z,25.50
2022-08-26T06:46:54.181Z,25.90
2022-08-26T06:49:27.347Z,26.40
2022-08-26T06:51:58.528Z,26.80
2022-08-26T06:54:26.668Z,27.10
2022-08-26T06:56:53.928Z,27.20
2022-08-26T06:59:21.939Z,27.50
2022-08-26T07:01:49.812Z,27.60
2022-08-26T07:04:20.098Z,27.30
2022-08-26T07:06:52.919Z,27.10
2022-08-26T07:09:22.745Z,27.20
2022-08-26T07:11:51.615Z,27.10
2022-08-26T07:14:21.124Z,26.90
2022-08-26T07:16:50.038Z,26.50
2022-08-26T07:19:30.400Z,26.20
2022-08-26T07:22:03.526Z,26.20
2022-08-26T07:24:32.527Z,26.20
2022-08-26T07:27:05.489Z,26.40
2022-08-26T07:29:33.408Z,26.60
2022-08-26T07:32:00.889Z,26.80
2022-08-26T07:34:27.948Z,26.90
2022-08-26T07:36:57.152Z,27.20
2022-08-26T07:39:26.428Z,27.30
2022-08-26T07:41:54.125Z,27.50
2022-08-26T07:44:21.218Z,27.70
2022-08-26T07:46:53.356Z,27.50
2022-08-26T07:49:22.422Z,27.30
2022-08-26T07:51:50.410Z,27.20
2022-08-26T07:54:17.590Z,27.20
2022-08-26T07:56:46.463Z,27.40
2022-08-26T07:59:15.174Z,27.50
2022-08-26T08:01:45.029Z,27.50
2022-08-26T08:04:14.633Z,27.10
2022-08-26T08:06:43.921Z,26.70
2022-08-26T08:09:12.688Z,26.10
2022-08-26T08:11:40.621Z,25.70
2022-08-26T08:14:11.650Z,25.30
2022-08-26T08:16:45.780Z,25.10
2022-08-26T08:19:14.651Z,25.00
2022-08-26T08:21:43.207Z,24.70
2022-08-26T08:24:11.400Z,24.60
2022-08-26T08:26:39.317Z,24.60
2022-08-26T08:29:08.484Z,24.80
2022-08-26T08:31:56.535Z,24.80
2022-08-26T08:34:30.927Z,24.70
2022-08-26T08:36:58.571Z,24.70
2022-08-26T08:39:27.580Z,24.70
2022-08-26T08:42:10.619Z,24.80
2022-08-26T08:44:42.033Z,24.70
2022-08-26T08:47:24.654Z,24.70
2022-08-26T08:49:54.692Z,24.70
2022-08-26T08:52:37.734Z,24.70
2022-08-26T08:55:11.091Z,24.70
2022-08-26T08:57:46.909Z,24.70
2022-08-26T09:00:19.073Z,24.60
2022-08-26T09:03:04.827Z,24.70
2022-08-26T09:05:40.511Z,24.70
2022-08-26T09:08:20.087Z,24.80
2022-08-26T09:10:56.445Z,24.80
2022-08-26T09:13:27.387Z,24.90
2022-08-26T09:16:03.620Z,24.90
2022-08-26T09:18:30.653Z,25.00
2022-08-26T09:21:04.942Z,25.00
2022-08-26T09:23:36.240Z,25.00
2022-08-26T09:26:37.255Z,25.10
2022-08-26T09:29:08.937Z,25.10
2022-08-26T09:31:38.997Z,25.10
2022-08-26T09:34:17.241Z,25.20
2022-08-26T09:36:47.162Z,25.30
2022-08-26T09:39:38.104Z,25.30
2022-08-26T09:42:09.851Z,25.30
2022-08-26T09:45:08.545Z,25.40
2022-08-26T09:47:41.630Z,25.50
2022-08-26T09:50:47.263Z,25.60
2022-08-26T09:53:28.803Z,25.70
2022-08-26T09:56:34.613Z,25.90
2022-08-26T09:59:02.796Z,25.90
2022-08-26T10:01:38.501Z,26.00
2022-08-26T10:04:14.203Z,26.00
2022-08-26T10:06:56.410Z,26.00
2022-08-26T10:09:26.236Z,26.00
2022-08-26T10:11:59.182Z,25.90
2022-08-26T10:14:40.010Z,25.90
2022-08-26T10:17:07.204Z,25.90
2022-08-26T10:19:56.095Z,25.90
2022-08-26T10:22:42.935Z,25.90
2022-08-26T10:25:16.204Z,25.80
2022-08-26T10:27:55.029Z,25.90
2022-08-26T10:30:25.928Z,26.10
2022-08-26T10:33:00.752Z,26.10
2022-08-26T10:35:28.209Z,26.30
2022-08-26T10:38:00.477Z,26.20
2022-08-26T10:40:36.018Z,26.10
2022-08-26T10:43:12.724Z,26.10
2022-08-26T10:45:50.885Z,26.20
2022-08-26T10:48:42.898Z,26.30
2022-08-26T10:51:12.839Z,26.20
2022-08-26T10:53:59.677Z,26.20
2022-08-26T10:56:44.956Z,26.20
2022-08-26T11:14:29.720Z,26.10
2022-08-26T11:16:59.780Z,25.90
2022-08-26T11:19:59.432Z,25.90
2022-08-26T11:22:33.278Z,25.80
2022-08-26T11:25:31.154Z,25.90
2022-08-26T11:28:00.691Z,25.90
2022-08-26T11:30:42.809Z,25.90
2022-08-26T11:33:31.271Z,26.10
2022-08-26T11:35:58.357Z,26.30
2022-08-26T11:38:29.831Z,26.40
2022-08-26T11:41:09.716Z,26.50
2022-08-26T11:43:38.737Z,26.60
2022-08-26T11:46:11.592Z,26.70
2022-08-26T11:48:41.026Z,26.80
2022-08-26T11:51:39.695Z,26.80
2022-08-26T11:54:14.307Z,26.80
2022-08-26T11:56:44.818Z,26.80
2022-08-26T11:59:17.968Z,26.80
2022-08-26T12:01:49.411Z,26.90
2022-08-26T12:04:38.918Z,26.90
2022-08-26T12:07:08.811Z,26.90
2022-08-26T12:09:50.325Z,26.90
2022-08-26T12:12:23.295Z,27.10
2022-08-26T12:15:15.511Z,27.50
2022-08-26T12:17:44.968Z,27.90
2022-08-26T12:20:46.086Z,28.00
2022-08-26T12:23:22.436Z,28.00
2022-08-26T12:25:52.774Z,28.10
2022-08-26T12:28:21.623Z,27.90
2022-08-26T12:31:01.042Z,27.70
2022-08-26T12:33:28.841Z,27.70
2022-08-26T12:35:57.038Z,27.60
2022-08-26T12:38:26.261Z,27.40
2022-08-26T12:40:53.749Z,27.40
2022-08-26T12:43:44.855Z,27.40
2022-08-26T12:46:16.536Z,27.40
2022-08-26T12:48:49.442Z,27.40
2022-08-26T12:51:23.746Z,27.30
2022-08-26T12:53:51.041Z,27.10
2022-08-26T12:56:27.400Z,26.90
2022-08-26T12:59:25.272Z,26.80
2022-08-26T13:01:53.822Z,26.70
2022-08-26T13:04:40.094Z,26.40
2022-08-26T13:07:26.801Z,26.30
2022-08-26T13:09:56.372Z,26.20
2022-08-26T13:12:25.897Z,26.10
2022-08-26T13:14:54.090Z,26.00
2022-08-26T13:17:21.542Z,25.90
2022-08-26T13:19:48.556Z,25.80
2022-08-26T13:22:19.274Z,25.70
2022-08-26T13:24:46.212Z,25.80
2022-08-26T13:27:14.775Z,25.80
2022-08-26T13:29:42.138Z,25.80
2022-08-26T13:32:09.662Z,25.90
2022-08-26T13:34:38.741Z,25.90
2022-08-26T13:37:06.449Z,25.90
2022-08-26T13:39:33.594Z,25.80
2022-08-26T13:42:00.714Z,25.80
2022-08-26T13:44:27.814Z,25.80
2022-08-26T13:46:55.037Z,25.80
2022-08-26T13:49:22.714Z,25.80
2022-08-26T13:51:49.850Z,25.90
2022-08-26T13:54:16.842Z,25.80
2022-08-26T13:56:44.017Z,25.70
2022-08-26T13:59:11.097Z,25.70
2022-08-26T14:01:39.863Z,25.60
2022-08-26T14:04:07.276Z,25.70
2022-08-26T14:06:34.472Z,25.70
2022-08-26T14:09:01.590Z,25.80
2022-08-26T14:11:36.991Z,25.70
2022-08-26T14:14:17.285Z,25.70
2022-08-26T14:16:51.252Z,25.70
2022-08-26T14:19:26.181Z,25.70
2022-08-26T14:21:53.358Z,25.70
2022-08-26T14:24:20.359Z,25.80
2022-08-26T14:26:48.631Z,25.90
2022-08-26T14:29:16.875Z,25.80
2022-08-26T14:31:44.830Z,25.80
2022-08-26T14:34:13.939Z,25.70
2022-08-26T14:36:40.972Z,25.70
2022-08-26T14:39:11.318Z,25.80
2022-08-26T14:41:54.436Z,25.70
2022-08-26T14:44:25.848Z,25.70
2022-08-26T14:46:54.790Z,25.70
2022-08-26T14:49:23.552Z,25.70
2022-08-26T14:51:50.830Z,25.70
2022-08-26T14:54:19.210Z,25.70
2022-08-26T14:56:52.155Z,25.80
2022-08-26T14:59:25.685Z,25.80
2022-08-26T15:01:53.690Z,25.80
2022-08-26T15:04:21.589Z,25.80
2022-08-26T15:06:49.377Z,25.80
2022-08-26T15:09:16.866Z,25.80
2022-08-26T15:11:44.157Z,25.80
2022-08-26T15:14:19.198Z,25.70
2022-08-26T15:16:48.699Z,25.60
2022-08-26T15:19:16.952Z,25.60
2022-08-26T15:21:45.751Z,25.60
2022-08-26T15:24:13.935Z,25.50
2022-08-26T15:26:41.093Z,25.40
2022-08-26T15:29:08.167Z,25.30
2022-08-26T15:31:35.624Z,25.20
2022-08-26T15:34:11.033Z,25.10
2022-08-26T15:36:42.714Z,25.10
2022-08-26T15:39:10.406Z,25.00
2022-08-26T15:41:37.610Z,25.00
2022-08-26T15:44:06.073Z,25.00
2022-08-26T15:46:33.951Z,24.90
2022-08-26T15:49:03.270Z,24.90
2022-08-26T15:51:33.869Z,24.80
2022-08-26T15:54:03.827Z,24.80
2022-08-26T15:56:34.874Z,24.70
2022-08-26T15:59:04.541Z,24.70
2022-08-26T16:01:32.505Z,24.70
2022-08-26T16:04:00.155Z,24.70
2022-08-26T16:06:32.569Z,24.60
2022-08-26T16:09:00.146Z,24.60
2022-08-26T16:11:27.460Z,24.60
2022-08-26T16:13:55.155Z,24.60
2022-08-26T16:16:22.521Z,24.50
2022-08-26T16:18:49.823Z,24.50
2022-08-26T16:21:23.170Z,24.50
2022-08-26T16:23:50.999Z,24.40
2022-08-26T16:26:21.746Z,24.40
2022-08-26T16:28:48.635Z,24.30
2022-08-26T16:31:16.253Z,24.20
2022-08-26T16:33:43.802Z,24.20
2022-08-26T16:36:11.981Z,24.20
2022-08-26T16:38:42.256Z,24.10
2022-08-26T16:41:09.401Z,24.00
2022-08-26T16:43:36.869Z,23.90
2022-08-26T16:46:07.157Z,23.90
2022-08-26T16:48:34.969Z,23.70
2022-08-26T16:51:02.227Z,23.70
2022-08-26T16:53:29.431Z,23.60
2022-08-26T16:55:56.386Z,23.60
2022-08-26T16:58:23.393Z,23.50
2022-08-26T17:00:50.425Z,23.50
2022-08-26T17:03:17.753Z,23.40
2022-08-26T17:05:44.758Z,23.30
2022-08-26T17:08:14.560Z,23.20
2022-08-26T17:10:54.683Z,23.10
2022-08-26T17:13:31.636Z,23.00
2022-08-26T17:16:04.351Z,23.00
2022-08-26T17:18:31.705Z,22.90
2022-08-26T17:21:06.442Z,22.90
2022-08-26T17:23:33.948Z,22.80
2022-08-26T17:26:01.115Z,22.70
2022-08-26T17:28:28.098Z,22.70
2022-08-26T17:30:57.491Z,22.60
2022-08-26T17:33:27.499Z,22.50
2022-08-26T17:35:55.429Z,22.40
2022-08-26T17:38:22.936Z,22.40
2022-08-26T17:40:50.549Z,22.30
2022-08-26T17:43:18.484Z,22.20
2022-08-26T17:45:45.431Z,22.20
2022-08-26T17:48:12.833Z,22.00
2022-08-26T17:50:41.974Z,21.90
2022-08-26T17:53:12.957Z,21.80
2022-08-26T17:55:46.767Z,21.70
2022-08-26T17:58:14.755Z,21.50
2022-08-26T18:00:49.874Z,21.40
2022-08-26T18:03:17.255Z,21.30
2022-08-26T18:05:48.451Z,21.10
2022-08-26T18:08:15.398Z,21.00
2022-08-26T18:10:46.334Z,20.90
2022-08-26T18:13:14.965Z,20.90
2022-08-26T18:15:46.515Z,20.80
2022-08-26T18:18:14.884Z,20.60
2022-08-26T18:20:43.917Z,20.60
2022-08-26T18:23:12.471Z,20.50
2022-08-26T18:25:41.866Z,20.50
2022-08-26T18:28:09.693Z,20.40
2022-08-26T18:30:37.178Z,20.30
2022-08-26T18:33:04.824Z,20.20
2022-08-26T18:35:31.889Z,20.20
2022-08-26T18:38:01.445Z,20.10
2022-08-26T18:40:43.479Z,20.10
2022-08-26T18:43:11.565Z,20.00
2022-08-26T18:45:38.500Z,20.00
2022-08-26T18:48:05.983Z,19.90
2022-08-26T18:50:33.046Z,19.90
2022-08-26T18:53:01.995Z,19.80
2022-08-26T18:55:32.239Z,19.70
2022-08-26T18:58:00.049Z,19.70
2022-08-26T19:00:27.589Z,19.60
2022-08-26T19:02:56.154Z,19.60
2022-08-26T19:05:23.300Z,19.60
2022-08-26T19:07:51.309Z,19.50
2022-08-26T19:10:18.263Z,19.50
2022-08-26T19:12:45.182Z,19.50
2022-08-26T19:15:13.260Z,19.40
2022-08-26T19:17:40.255Z,19.40
2022-08-26T19:20:07.839Z,19.40
2022-08-26T19:22:34.825Z,19.40
2022-08-26T19:25:02.039Z,19.30
2022-08-26T19:27:29.849Z,19.30
2022-08-26T19:29:57.724Z,19.30
2022-08-26T19:32:25.378Z,19.20
2022-08-26T19:34:52.886Z,19.20
2022-08-26T19:37:21.530Z,19.20
2022-08-26T19:39:48.794Z,19.10
2022-08-26T19:42:16.649Z,19.10
2022-08-26T19:45:02.223Z,19.00
2022-08-26T19:47:29.246Z,19.00
2022-08-26T19:49:57.159Z,18.90
2022-08-26T19:52:29.950Z,18.90
2022-08-26T19:54:57.771Z,18.90
2022-08-26T19:57:24.873Z,18.80
2022-08-26T19:59:51.900Z,18.80
2022-08-26T20:02:19.328Z,18.70
2022-08-26T20:04:46.443Z,18.70
2022-08-26T20:07:18.592Z,18.70
2022-08-26T20:09:46.920Z,18.60
2022-08-26T20:12:15.447Z,18.60
2022-08-26T20:14:42.942Z,18.60
2022-08-26T20:17:10.108Z,18.60
2022-08-26T20:19:55.810Z,18.60
2022-08-26T20:22:23.470Z,18.60
2022-08-26T20:24:50.628Z,18.60
2022-08-26T20:27:18.045Z,18.60
2022-08-26T20:29:45.004Z,18.50
2022-08-26T20:32:12.292Z,18.50
2022-08-26T20:34:40.103Z,18.50
2022-08-26T20:37:08.628Z,18.40
2022-08-26T20:39:35.677Z,18.40
2022-08-26T20:42:03.410Z,18.50
2022-08-26T20:44:30.397Z,18.50
2022-08-26T20:46:59.237Z,18.50
2022-08-26T20:49:27.865Z,18.50
2022-08-26T20:51:55.063Z,18.40
2022-08-26T20:54:28.204Z,18.40
2022-08-26T20:56:57.971Z,18.40
2022-08-26T20:59:26.180Z,18.30
2022-08-26T21:01:53.487Z,18.30
2022-08-26T21:04:23.455Z,18.30
2022-08-26T21:06:52.619Z,18.20
2022-08-26T21:09:21.765Z,18.20
2022-08-26T21:11:48.842Z,18.20
2022-08-26T21:14:17.259Z,18.20
2022-08-26T21:16:45.399Z,18.20
2022-08-26T21:19:15.429Z,18.20
2022-08-26T21:21:42.935Z,18.20
2022-08-26T21:24:10.308Z,18.20
2022-08-26T21:26:37.860Z,18.20
2022-08-26T21:29:06.833Z,18.10
2022-08-26T21:31:35.223Z,18.10
2022-08-26T21:34:02.381Z,18.00
2022-08-26T21:36:30.044Z,18.00
2022-08-26T21:38:58.073Z,18.00
2022-08-26T21:41:26.307Z,17.90
2022-08-26T21:43:56.184Z,17.90
2022-08-26T21:46:25.320Z,18.00
2022-08-26T21:48:57.268Z,17.90
2022-08-26T21:51:33.504Z,18.00
2022-08-26T21:54:02.036Z,18.00
2022-08-26T21:56:31.805Z,18.00
2022-08-26T21:59:00.292Z,17.90
2022-08-26T22:01:32.595Z,17.90
2022-08-26T22:03:59.724Z,17.90
2022-08-26T22:06:28.571Z,17.90
2022-08-26T22:08:56.562Z,17.90
2022-08-26T22:11:25.003Z,17.90
2022-08-26T22:13:52.798Z,17.90
2022-08-26T22:16:20.209Z,17.90
2022-08-26T22:18:47.435Z,17.90
2022-08-26T22:21:20.076Z,17.90
2022-08-26T22:23:47.661Z,17.90
2022-08-26T22:26:25.295Z,17.90
2022-08-26T22:28:58.967Z,17.90
2022-08-26T22:31:29.503Z,17.80
2022-08-26T22:34:10.932Z,17.80
2022-08-26T22:36:43.730Z,17.90
2022-08-26T22:39:15.474Z,17.90
2022-08-26T22:41:43.982Z,17.90
2022-08-26T22:44:12.124Z,17.90
2022-08-26T22:46:40.221Z,17.90
2022-08-26T22:49:09.780Z,17.90
2022-08-26T22:51:36.945Z,17.80
2022-08-26T22:54:04.925Z,17.80
2022-08-26T22:56:32.081Z,17.80
2022-08-26T22:58:59.187Z,17.70
2022-08-26T23:01:26.384Z,17.70
2022-08-26T23:03:53.683Z,17.80
2022-08-26T23:06:20.691Z,17.80
2022-08-26T23:08:47.780Z,17.80
2022-08-26T23:11:15.230Z,17.80
2022-08-26T23:13:42.626Z,17.80
2022-08-26T23:16:11.557Z,17.70
2022-08-26T23:18:40.471Z,17.70
2022-08-26T23:21:07.757Z,17.70
2022-08-26T23:23:35.372Z,17.60
2022-08-26T23:26:06.022Z,17.50
2022-08-26T23:28:33.792Z,17.50
2022-08-26T23:31:00.802Z,17.40
2022-08-26T23:33:47.757Z,17.30
2022-08-26T23:36:17.966Z,17.30
2022-08-26T23:38:47.645Z,17.30
2022-08-26T23:41:23.009Z,17.20
2022-08-26T23:43:50.745Z,17.20
2022-08-26T23:46:19.161Z,17.20
2022-08-26T23:48:46.498Z,17.10
2022-08-26T23:51:31.753Z,17.10
2022-08-26T23:53:59.021Z,17.10
2022-08-26T23:56:26.941Z,17.00
2022-08-26T23:58:54.390Z,17.00
